createdAt,value
2018-12-30T00:01:06.901Z,38.73
2018-12-30T00:03:36.238Z,45.60
2018-12-30T00:06:05.624Z,40.23
2018-12-30T00:08:35.118Z,39.70
2018-12-30T00:11:04.282Z,46.03
2018-12-30T00:13:33.752Z,44.07
2018-12-30T00:16:03.126Z,40.53
2018-12-30T00:18:32.245Z,45.83
2018-12-30T00:21:08.767Z,47.53
2018-12-30T00:23:32.129Z,42.43
2018-12-30T00:26:01.215Z,46.43
2018-12-30T00:28:30.366Z,47.93
2018-12-30T00:30:59.625Z,49.80
2018-12-30T00:33:28.803Z,47.87
2018-12-30T00:35:57.971Z,45.43
2018-12-30T00:38:27.225Z,45.27
2018-12-30T00:40:56.314Z,48.73
2018-12-30T00:43:28.442Z,48.43
2018-12-30T00:45:57.542Z,70.27
2018-12-30T00:48:27.596Z,88.27
2018-12-30T00:50:56.835Z,60.27
2018-12-30T00:53:25.936Z,88.93
2018-12-30T00:55:55.029Z,64.70
2018-12-30T00:58:24.192Z,67.43
2018-12-30T01:00:53.552Z,89.37
2018-12-30T01:03:23.631Z,122.70
2018-12-30T01:05:52.800Z,92.23
2018-12-30T01:08:21.892Z,84.43
2018-12-30T01:10:52.081Z,88.30
2018-12-30T01:13:22.533Z,78.83
2018-12-30T01:15:51.609Z,93.03
2018-12-30T01:18:20.714Z,52.97
2018-12-30T01:20:49.871Z,55.07
2018-12-30T01:23:19.052Z,57.80
2018-12-30T01:25:48.482Z,107.20
2018-12-30T01:28:17.630Z,119.40
2018-12-30T01:30:46.738Z,62.57
2018-12-30T01:33:15.825Z,73.20
2018-12-30T01:35:44.926Z,115.37
2018-12-30T01:38:14.021Z,107.87
2018-12-30T01:40:43.189Z,88.40
2018-12-30T01:43:12.274Z,97.70
2018-12-30T01:45:41.377Z,164.97
2018-12-30T01:48:10.509Z,98.83
2018-12-30T01:50:39.609Z,95.67
2018-12-30T01:53:09.075Z,84.77
2018-12-30T01:55:38.178Z,92.00
2018-12-30T01:58:07.350Z,82.80
2018-12-30T02:00:36.478Z,71.20
2018-12-30T02:03:05.635Z,81.37
2018-12-30T02:05:36.545Z,60.30
2018-12-30T02:08:05.642Z,72.87
2018-12-30T02:10:34.755Z,57.13
2018-12-30T02:13:04.819Z,56.00
2018-12-30T02:15:33.911Z,56.40
2018-12-30T02:18:03.276Z,79.03
2018-12-30T02:20:32.365Z,66.43
2018-12-30T02:23:03.136Z,54.53
2018-12-30T02:25:32.245Z,53.50
2018-12-30T02:28:01.401Z,48.87
2018-12-30T02:30:30.498Z,53.17
2018-12-30T02:32:59.604Z,51.07
2018-12-30T02:35:28.701Z,44.93
2018-12-30T02:37:57.800Z,49.27
2018-12-30T02:40:26.881Z,51.93
2018-12-30T02:42:55.993Z,45.40
2018-12-30T02:45:25.093Z,49.57
2018-12-30T02:47:54.189Z,43.80
2018-12-30T02:50:23.274Z,50.93
2018-12-30T02:52:52.372Z,49.83
2018-12-30T02:55:21.456Z,50.13
2018-12-30T02:57:51.567Z,44.17
2018-12-30T03:00:20.706Z,48.77
2018-12-30T03:02:49.794Z,41.13
2018-12-30T03:05:19.156Z,47.47
2018-12-30T03:07:48.249Z,41.27
2018-12-30T03:10:17.347Z,42.40
2018-12-30T03:12:46.454Z,41.20
2018-12-30T03:15:15.820Z,34.13
2018-12-30T03:17:45.086Z,39.23
2018-12-30T03:20:14.178Z,43.73
2018-12-30T03:22:43.377Z,37.10
2018-12-30T03:25:12.454Z,43.83
2018-12-30T03:27:41.541Z,38.50
2018-12-30T03:30:10.637Z,39.43
2018-12-30T03:32:39.739Z,39.97
2018-12-30T03:35:27.139Z,42.37
2018-12-30T03:37:56.260Z,43.37
2018-12-30T03:40:33.043Z,42.47
2018-12-30T03:43:02.159Z,41.70
2018-12-30T03:45:31.346Z,42.50
2018-12-30T03:48:01.548Z,42.80
2018-12-30T03:50:30.768Z,44.77
2018-12-30T03:52:59.893Z,41.97
2018-12-30T03:55:29.056Z,41.70
2018-12-30T03:57:58.175Z,43.70
2018-12-30T04:00:27.267Z,43.43
2018-12-30T04:02:56.635Z,41.97
2018-12-30T04:05:25.729Z,40.00
2018-12-30T04:07:54.887Z,40.53
2018-12-30T04:10:24.157Z,37.50
2018-12-30T04:12:53.806Z,34.77
2018-12-30T04:15:22.956Z,36.13
2018-12-30T04:17:52.102Z,38.67
2018-12-30T04:20:21.215Z,35.53
2018-12-30T04:22:50.315Z,35.70
2018-12-30T04:25:19.434Z,38.03
2018-12-30T04:27:48.544Z,44.03
2018-12-30T04:30:17.662Z,37.53
2018-12-30T04:32:46.768Z,41.53
2018-12-30T04:35:15.884Z,37.17
2018-12-30T04:37:44.982Z,39.80
2018-12-30T04:40:14.096Z,38.47
2018-12-30T04:42:43.205Z,37.70
2018-12-30T04:45:12.315Z,34.63
2018-12-30T04:47:41.576Z,36.50
2018-12-30T04:50:10.707Z,40.53
2018-12-30T04:52:39.814Z,37.47
2018-12-30T04:55:09.014Z,41.27
2018-12-30T04:57:54.418Z,35.57
2018-12-30T05:00:23.528Z,40.63
2018-12-30T05:02:52.655Z,35.77
2018-12-30T05:05:23.256Z,39.13
2018-12-30T05:07:52.559Z,38.23
2018-12-30T05:10:21.659Z,42.23
2018-12-30T05:13:10.291Z,37.70
2018-12-30T05:15:39.396Z,35.73
2018-12-30T05:18:08.523Z,34.83
2018-12-30T05:20:37.641Z,33.97
2018-12-30T05:23:06.844Z,39.03
2018-12-30T05:25:35.941Z,35.37
2018-12-30T05:28:05.056Z,35.43
2018-12-30T05:30:34.163Z,36.47
2018-12-30T05:33:03.284Z,39.23
2018-12-30T05:35:32.383Z,33.83
2018-12-30T05:38:01.503Z,34.87
2018-12-30T05:40:30.712Z,31.07
2018-12-30T05:43:00.096Z,33.37
2018-12-30T05:45:29.502Z,33.07
2018-12-30T05:47:58.625Z,35.60
2018-12-30T05:50:27.822Z,38.77
2018-12-30T05:52:56.922Z,30.83
2018-12-30T05:55:26.028Z,38.97
2018-12-30T05:57:55.141Z,33.80
2018-12-30T06:00:24.407Z,34.17
2018-12-30T06:02:53.511Z,35.43
2018-12-30T06:05:22.678Z,33.33
2018-12-30T06:08:04.512Z,36.20
2018-12-30T06:10:33.665Z,36.10
2018-12-30T06:13:02.803Z,33.80
2018-12-30T06:15:31.979Z,35.90
2018-12-30T06:18:01.090Z,29.73
2018-12-30T06:20:30.186Z,38.37
2018-12-30T06:22:59.305Z,32.23
2018-12-30T06:25:28.464Z,34.27
2018-12-30T06:27:57.586Z,33.30
2018-12-30T06:30:26.747Z,30.00
2018-12-30T06:32:55.854Z,35.97
2018-12-30T06:35:24.963Z,39.47
2018-12-30T06:37:54.085Z,30.10
2018-12-30T06:40:23.178Z,36.43
2018-12-30T06:42:52.306Z,34.43
2018-12-30T06:45:21.491Z,35.57
2018-12-30T06:47:50.613Z,36.83
2018-12-30T06:50:19.716Z,34.50
2018-12-30T06:52:48.839Z,25.70
2018-12-30T06:55:17.949Z,36.07
2018-12-30T06:57:47.140Z,62.50
2018-12-30T07:00:16.249Z,53.63
2018-12-30T07:02:45.359Z,36.97
2018-12-30T07:05:14.479Z,35.30
2018-12-30T07:07:43.593Z,38.30
2018-12-30T07:10:12.714Z,33.17
2018-12-30T07:12:41.991Z,35.97
2018-12-30T07:15:11.113Z,33.73
2018-12-30T07:17:40.215Z,35.67
2018-12-30T07:20:09.338Z,42.30
2018-12-30T07:22:38.507Z,36.60
2018-12-30T07:25:07.611Z,50.17
2018-12-30T07:27:36.724Z,38.00
2018-12-30T07:30:06.273Z,36.53
2018-12-30T07:32:35.490Z,36.90
2018-12-30T07:35:04.590Z,32.00
2018-12-30T07:37:33.691Z,31.43
2018-12-30T07:40:02.803Z,29.03
2018-12-30T07:42:32.254Z,36.33
2018-12-30T07:45:01.371Z,29.07
2018-12-30T07:47:37.306Z,34.20
2018-12-30T07:50:07.356Z,29.53
2018-12-30T07:52:36.490Z,32.70
2018-12-30T07:55:05.611Z,31.67
2018-12-30T07:57:34.720Z,34.07
2018-12-30T08:00:05.428Z,28.27
2018-12-30T08:02:34.510Z,30.23
2018-12-30T08:05:11.955Z,29.70
2018-12-30T08:07:41.046Z,29.00
2018-12-30T08:10:10.249Z,27.27
2018-12-30T08:12:39.378Z,30.60
2018-12-30T08:15:08.512Z,30.73
2018-12-30T08:17:37.690Z,29.43
2018-12-30T08:20:07.551Z,52.00
2018-12-30T08:22:36.738Z,36.20
2018-12-30T08:25:05.865Z,34.20
2018-12-30T08:27:34.976Z,29.97
2018-12-30T08:30:04.523Z,26.10
2018-12-30T08:32:33.927Z,26.37
2018-12-30T08:35:03.094Z,29.10
2018-12-30T08:37:46.262Z,31.57
2018-12-30T08:40:15.590Z,32.63
2018-12-30T08:42:44.982Z,31.87
2018-12-30T08:45:15.816Z,41.60
2018-12-30T08:47:45.071Z,31.63
2018-12-30T08:50:14.271Z,37.27
2018-12-30T08:52:43.371Z,29.20
2018-12-30T08:55:12.519Z,55.37
2018-12-30T08:57:41.618Z,56.37
2018-12-30T09:00:10.708Z,37.03
2018-12-30T09:02:39.827Z,33.50
2018-12-30T09:05:08.955Z,92.63
2018-12-30T09:07:38.064Z,138.60
2018-12-30T09:10:07.989Z,53.77
2018-12-30T09:12:37.262Z,64.40
2018-12-30T09:15:06.418Z,27.87
2018-12-30T09:17:35.527Z,26.70
2018-12-30T09:20:05.378Z,28.03
2018-12-30T09:22:34.490Z,27.10
2018-12-30T09:25:03.586Z,26.40
2018-12-30T09:27:32.694Z,36.90
2018-12-30T09:30:01.822Z,30.80
2018-12-30T09:32:30.951Z,30.60
2018-12-30T09:35:00.080Z,30.50
2018-12-30T09:37:29.676Z,30.90
2018-12-30T09:39:58.762Z,45.60
2018-12-30T09:42:27.882Z,62.60
2018-12-30T09:44:56.988Z,125.13
2018-12-30T09:47:26.096Z,49.90
2018-12-30T09:49:55.199Z,29.53
2018-12-30T09:52:24.302Z,35.60
2018-12-30T09:54:53.392Z,28.50
2018-12-30T09:57:22.503Z,50.87
2018-12-30T09:59:51.839Z,69.87
2018-12-30T10:02:20.967Z,51.23
2018-12-30T10:05:02.848Z,42.30
2018-12-30T10:07:31.965Z,33.17
2018-12-30T10:10:01.058Z,31.63
2018-12-30T10:12:30.184Z,34.20
2018-12-30T10:15:05.466Z,37.87
2018-12-30T10:17:30.164Z,30.53
2018-12-30T10:19:59.281Z,40.07
2018-12-30T10:22:28.376Z,42.07
2018-12-30T10:24:57.491Z,45.80
2018-12-30T10:27:26.587Z,30.30
2018-12-30T10:29:55.707Z,36.33
2018-12-30T10:32:24.876Z,39.13
2018-12-30T10:34:54.226Z,65.73
2018-12-30T10:37:23.334Z,47.50
2018-12-30T10:39:52.614Z,47.90
2018-12-30T10:42:21.750Z,25.73
2018-12-30T10:44:50.867Z,31.77
2018-12-30T10:47:19.954Z,27.37
2018-12-30T10:49:49.057Z,29.90
2018-12-30T10:52:18.159Z,32.07
2018-12-30T10:54:47.340Z,30.10
2018-12-30T10:57:16.440Z,26.23
2018-12-30T10:59:45.564Z,26.27
2018-12-30T11:02:14.653Z,25.20
2018-12-30T11:04:44.007Z,22.23
2018-12-30T11:07:13.124Z,23.23
2018-12-30T11:09:43.218Z,19.47
2018-12-30T11:12:12.331Z,20.30
2018-12-30T11:14:41.434Z,22.07
2018-12-30T11:17:10.545Z,45.50
2018-12-30T11:19:39.730Z,31.40
2018-12-30T11:22:08.831Z,22.53
2018-12-30T11:24:37.935Z,35.23
2018-12-30T11:27:07.046Z,31.47
2018-12-30T11:29:36.138Z,25.57
2018-12-30T11:32:05.247Z,25.47
2018-12-30T11:34:34.334Z,29.50
2018-12-30T11:37:03.446Z,30.40
2018-12-30T11:39:32.594Z,23.27
2018-12-30T11:42:01.712Z,24.20
2018-12-30T11:44:30.803Z,22.93
2018-12-30T11:46:59.918Z,22.83
2018-12-30T11:49:29.011Z,19.13
2018-12-30T11:51:58.117Z,26.43
2018-12-30T11:54:27.222Z,21.63
2018-12-30T11:56:56.332Z,20.87
2018-12-30T11:59:25.426Z,18.43
2018-12-30T12:01:54.599Z,20.43
2018-12-30T12:04:23.750Z,24.40
2018-12-30T12:06:52.860Z,20.07
2018-12-30T12:09:21.970Z,24.37
2018-12-30T12:11:51.170Z,24.50
2018-12-30T12:14:20.274Z,24.03
2018-12-30T12:16:49.371Z,23.27
2018-12-30T12:19:34.501Z,25.77
2018-12-30T12:22:03.702Z,22.53
2018-12-30T12:24:53.604Z,26.27
2018-12-30T12:27:22.689Z,23.73
2018-12-30T12:29:51.785Z,24.57
2018-12-30T12:32:20.874Z,21.87
2018-12-30T12:34:49.964Z,24.53
2018-12-30T12:37:19.056Z,24.27
2018-12-30T12:39:48.151Z,22.50
2018-12-30T12:42:17.240Z,26.90
2018-12-30T12:44:46.337Z,21.87
2018-12-30T12:47:15.412Z,28.23
2018-12-30T12:49:44.513Z,19.47
2018-12-30T12:52:13.632Z,21.03
2018-12-30T12:54:42.693Z,23.80
2018-12-30T12:57:11.786Z,22.70
2018-12-30T12:59:40.893Z,203.63
2018-12-30T13:02:09.982Z,71.97
2018-12-30T13:04:39.083Z,96.87
2018-12-30T13:07:08.173Z,83.33
2018-12-30T13:09:37.381Z,112.23
2018-12-30T13:12:06.765Z,60.67
2018-12-30T13:14:35.867Z,80.57
2018-12-30T13:17:04.953Z,120.87
2018-12-30T13:19:34.136Z,116.23
2018-12-30T13:22:03.295Z,82.37
2018-12-30T13:24:39.649Z,99.47
2018-12-30T13:27:03.376Z,100.83
2018-12-30T13:29:32.495Z,99.97
2018-12-30T13:32:01.641Z,79.43
2018-12-30T13:34:30.818Z,69.00
2018-12-30T13:36:59.989Z,64.00
2018-12-30T13:39:29.091Z,71.80
2018-12-30T13:41:58.181Z,83.80
2018-12-30T13:44:27.281Z,53.77
2018-12-30T13:46:56.358Z,70.17
2018-12-30T13:49:25.465Z,62.30
2018-12-30T13:51:54.561Z,90.47
2018-12-30T13:54:23.734Z,78.63
2018-12-30T13:56:52.818Z,45.63
2018-12-30T13:59:21.915Z,31.30
2018-12-30T14:01:51.050Z,27.47
2018-12-30T14:04:20.153Z,27.90
2018-12-30T14:06:49.253Z,30.60
2018-12-30T14:09:18.348Z,43.03
2018-12-30T14:11:47.445Z,37.47
2018-12-30T14:14:16.541Z,39.17
2018-12-30T14:16:45.870Z,34.13
2018-12-30T14:19:14.957Z,34.87
2018-12-30T14:21:44.061Z,64.97
2018-12-30T14:24:13.157Z,42.10
2018-12-30T14:26:42.246Z,83.00
2018-12-30T14:29:11.340Z,148.70
2018-12-30T14:31:40.449Z,120.97
2018-12-30T14:34:09.537Z,70.27
2018-12-30T14:36:38.638Z,83.80
2018-12-30T14:39:07.731Z,48.63
2018-12-30T14:41:36.829Z,55.97
2018-12-30T14:44:06.166Z,92.20
2018-12-30T14:46:35.318Z,65.78
2018-12-30T14:49:04.417Z,55.10
2018-12-30T14:51:33.498Z,63.47
2018-12-30T14:54:02.597Z,54.90
2018-12-30T14:56:31.952Z,44.57
2018-12-30T14:59:01.041Z,62.47
2018-12-30T15:01:30.143Z,60.47
2018-12-30T15:03:59.241Z,66.90
2018-12-30T15:06:28.342Z,42.43
2018-12-30T15:08:57.425Z,49.57
2018-12-30T15:11:26.520Z,63.50
2018-12-30T15:13:55.600Z,50.87
2018-12-30T15:16:24.700Z,58.80
2018-12-30T15:18:53.785Z,46.43
2018-12-30T15:21:22.880Z,44.70
2018-12-30T15:23:51.971Z,48.63
2018-12-30T15:26:21.065Z,47.40
2018-12-30T15:28:50.154Z,43.57
2018-12-30T15:31:19.249Z,34.43
2018-12-30T15:33:48.340Z,37.57
2018-12-30T15:36:17.447Z,35.20
2018-12-30T15:38:46.535Z,34.17
2018-12-30T15:41:15.632Z,38.80
2018-12-30T15:43:44.725Z,38.90
2018-12-30T15:46:14.163Z,37.37
2018-12-30T15:48:43.256Z,32.33
2018-12-30T15:51:12.354Z,39.50
2018-12-30T15:53:41.449Z,32.47
2018-12-30T15:56:10.550Z,66.33
2018-12-30T15:58:39.633Z,70.17
2018-12-30T16:01:09.001Z,82.13
2018-12-30T16:03:38.095Z,104.40
2018-12-30T16:06:07.176Z,113.17
2018-12-30T16:08:36.273Z,90.23
2018-12-30T16:11:05.626Z,62.73
2018-12-30T16:13:34.729Z,52.63
2018-12-30T16:16:03.802Z,50.57
2018-12-30T16:18:32.907Z,46.33
2018-12-30T16:21:03.070Z,42.20
2018-12-30T16:23:32.153Z,38.03
2018-12-30T16:26:01.244Z,31.07
2018-12-30T16:28:31.157Z,33.27
2018-12-30T16:31:00.245Z,34.03
2018-12-30T16:33:29.346Z,40.47
2018-12-30T16:35:58.433Z,33.10
2018-12-30T16:38:27.531Z,29.33
2018-12-30T16:40:56.613Z,31.93
2018-12-30T16:43:25.715Z,29.20
2018-12-30T16:45:54.806Z,32.13
2018-12-30T16:48:23.897Z,27.70
2018-12-30T16:50:52.991Z,27.43
2018-12-30T16:53:22.085Z,25.10
2018-12-30T16:55:51.223Z,30.20
2018-12-30T16:58:20.321Z,26.00
2018-12-30T17:00:49.403Z,26.87
2018-12-30T17:03:18.520Z,24.80
2018-12-30T17:05:48.581Z,28.93
2018-12-30T17:08:17.677Z,39.17
2018-12-30T17:10:46.773Z,81.60
2018-12-30T17:13:15.884Z,50.77
2018-12-30T17:15:44.968Z,38.63
2018-12-30T17:18:14.058Z,32.83
2018-12-30T17:20:43.156Z,32.63
2018-12-30T17:23:13.485Z,29.87
2018-12-30T17:25:43.656Z,58.80
2018-12-30T17:28:12.740Z,54.53
2018-12-30T17:30:41.841Z,62.63
2018-12-30T17:33:10.925Z,80.13
2018-12-30T17:35:40.018Z,68.27
2018-12-30T17:38:09.103Z,96.40
2018-12-30T17:40:38.730Z,91.70
2018-12-30T17:43:08.402Z,146.50
2018-12-30T17:45:37.500Z,105.40
2018-12-30T17:48:06.588Z,64.23
2018-12-30T17:50:35.997Z,113.93
2018-12-30T17:53:05.085Z,144.43
2018-12-30T17:55:34.186Z,71.87
2018-12-30T17:58:03.285Z,110.97
2018-12-30T18:00:32.377Z,102.53
2018-12-30T18:03:01.461Z,63.47
2018-12-30T18:05:30.560Z,57.57
2018-12-30T18:07:59.655Z,86.90
2018-12-30T18:10:28.749Z,62.90
2018-12-30T18:12:57.845Z,49.00
2018-12-30T18:15:26.993Z,61.47
2018-12-30T18:17:56.122Z,50.33
2018-12-30T18:20:25.474Z,42.13
2018-12-30T18:22:54.559Z,46.23
2018-12-30T18:25:23.646Z,63.83
2018-12-30T18:27:52.741Z,55.07
2018-12-30T18:30:21.829Z,47.13
2018-12-30T18:32:50.999Z,45.37
2018-12-30T18:35:20.083Z,48.07
2018-12-30T18:37:49.175Z,46.87
2018-12-30T18:40:18.304Z,45.90
2018-12-30T18:42:47.397Z,42.63
2018-12-30T18:45:16.480Z,45.57
2018-12-30T18:47:46.654Z,96.50
2018-12-30T18:50:15.742Z,97.53
2018-12-30T18:52:44.836Z,114.33
2018-12-30T18:55:13.999Z,78.43
2018-12-30T18:57:43.094Z,59.47
2018-12-30T19:00:12.181Z,53.67
2018-12-30T19:02:44.329Z,51.53
2018-12-30T19:05:13.416Z,47.40
2018-12-30T19:07:42.510Z,45.87
2018-12-30T19:10:11.606Z,45.87
2018-12-30T19:12:40.949Z,38.60
2018-12-30T19:15:10.030Z,37.73
2018-12-30T19:17:39.363Z,38.53
2018-12-30T19:20:08.449Z,37.10
2018-12-30T19:22:37.578Z,40.17
2018-12-30T19:25:06.657Z,40.83
2018-12-30T19:27:35.755Z,41.00
2018-12-30T19:30:08.045Z,52.57
2018-12-30T19:32:37.142Z,36.67
2018-12-30T19:35:06.253Z,35.97
2018-12-30T19:37:35.324Z,38.97
2018-12-30T19:40:07.251Z,58.07
2018-12-30T19:42:36.663Z,68.43
2018-12-30T19:45:06.590Z,102.17
2018-12-30T19:47:36.657Z,95.47
2018-12-30T19:50:06.608Z,113.73
2018-12-30T19:52:35.705Z,73.60
2018-12-30T19:55:05.171Z,96.80
2018-12-30T19:57:34.244Z,72.47
2018-12-30T20:00:04.969Z,58.47
2018-12-30T20:02:34.147Z,68.77
2018-12-30T20:05:03.308Z,60.07
2018-12-30T20:07:32.644Z,82.50
2018-12-30T20:10:01.973Z,74.30
2018-12-30T20:12:31.073Z,88.17
2018-12-30T20:15:00.430Z,63.13
2018-12-30T20:17:29.694Z,54.30
2018-12-30T20:19:58.847Z,87.40
2018-12-30T20:22:28.390Z,66.47
2018-12-30T20:24:57.464Z,47.00
2018-12-30T20:27:26.625Z,43.87
2018-12-30T20:29:55.734Z,72.03
2018-12-30T20:32:25.147Z,69.70
2018-12-30T20:34:54.245Z,63.33
2018-12-30T20:37:23.340Z,52.93
2018-12-30T20:39:52.442Z,61.57
2018-12-30T20:42:21.534Z,57.43
2018-12-30T20:44:50.624Z,46.50
2018-12-30T20:47:19.711Z,47.70
2018-12-30T20:49:48.838Z,83.00
2018-12-30T20:52:17.917Z,66.20
2018-12-30T20:54:47.010Z,44.37
2018-12-30T20:57:16.098Z,42.90
2018-12-30T20:59:45.614Z,54.57
2018-12-30T21:02:14.689Z,45.93
2018-12-30T21:04:43.821Z,44.00
2018-12-30T21:07:12.905Z,53.93
2018-12-30T21:09:42.006Z,90.40
2018-12-30T21:12:11.089Z,95.63
2018-12-30T21:14:40.181Z,86.80
2018-12-30T21:17:09.265Z,86.40
2018-12-30T21:19:38.362Z,64.03
2018-12-30T21:22:07.453Z,43.13
2018-12-30T21:24:36.552Z,36.10
2018-12-30T21:27:05.636Z,37.63
2018-12-30T21:29:34.737Z,46.43
2018-12-30T21:32:03.826Z,33.43
2018-12-30T21:34:33.157Z,39.67
2018-12-30T21:37:02.258Z,42.47
2018-12-30T21:39:31.404Z,43.40
2018-12-30T21:42:00.503Z,38.10
2018-12-30T21:44:29.611Z,41.10
2018-12-30T21:46:58.767Z,39.00
2018-12-30T21:49:27.862Z,44.00
2018-12-30T21:51:57.085Z,37.30
2018-12-30T21:54:26.498Z,40.70
2018-12-30T21:56:55.592Z,34.70
2018-12-30T21:59:26.258Z,40.23
2018-12-30T22:01:55.551Z,36.33
2018-12-30T22:04:24.639Z,37.23
2018-12-30T22:06:53.734Z,38.67
2018-12-30T22:09:22.824Z,37.93
2018-12-30T22:11:51.933Z,40.80
2018-12-30T22:14:21.095Z,39.17
2018-12-30T22:16:50.237Z,38.00
2018-12-30T22:19:19.549Z,39.73
2018-12-30T22:21:48.713Z,42.10
2018-12-30T22:24:17.894Z,35.43
2018-12-30T22:26:47.016Z,38.60
2018-12-30T22:29:16.179Z,43.87
2018-12-30T22:31:45.355Z,231.63
2018-12-30T22:34:14.450Z,131.63
2018-12-30T22:36:43.633Z,60.63
2018-12-30T22:39:12.723Z,118.13
2018-12-30T22:41:42.237Z,118.67
2018-12-30T22:44:11.330Z,151.13
2018-12-30T22:46:42.372Z,147.80
2018-12-30T22:49:11.481Z,114.53
2018-12-30T22:51:40.637Z,131.20
2018-12-30T22:54:09.736Z,132.00
2018-12-30T22:56:38.842Z,99.00
2018-12-30T22:59:07.926Z,84.07
2018-12-30T23:01:37.083Z,132.50
2018-12-30T23:04:06.360Z,119.13
2018-12-30T23:06:35.436Z,129.87
2018-12-30T23:09:06.405Z,138.63
2018-12-30T23:11:35.493Z,114.20
2018-12-30T23:14:04.590Z,175.70
2018-12-30T23:16:33.725Z,200.33
2018-12-30T23:19:02.941Z,150.07
2018-12-30T23:21:32.029Z,85.47
2018-12-30T23:24:02.256Z,138.00
2018-12-30T23:26:31.451Z,144.60
2018-12-30T23:29:00.559Z,95.60
2018-12-30T23:31:29.653Z,108.83
2018-12-30T23:33:58.758Z,143.07
2018-12-30T23:36:29.277Z,76.57
2018-12-30T23:38:58.387Z,135.23
2018-12-30T23:41:27.516Z,147.23
2018-12-30T23:43:56.630Z,115.87
2018-12-30T23:46:25.753Z,74.93
2018-12-30T23:48:54.850Z,102.17
2018-12-30T23:51:23.945Z,114.67
2018-12-30T23:53:53.044Z,82.67
2018-12-30T23:56:22.341Z,129.10
2018-12-30T23:58:51.617Z,106.83
